Weather observations for the past three days for
Fort Worth, Fort Worth Alliance Airport
| Date | Time (cdt) | Wind (kph) | Vis. (km) | Weather | Sky Cond. | Temperature (ºC) | Relative Humidity | Wind Chill (°C) | Heat Index (°C) | Pressure | Precipitation (cm) | ||||||
|---|---|---|---|---|---|---|---|---|---|---|---|---|---|---|---|---|---|
| Air | Dwpt | 6 hour | altimeter (cm) | sea level (mb) | 1 hr | 3 hr | 6 hr | ||||||||||
| Max. | Min. | ||||||||||||||||
| 10 | 14:53 | NE 20 | 16.09 | Overcast | FEW018 OVC036 | 21.1 | 16.1 | 73% | 76.3 | 1016.3 | |||||||
| 10 | 13:53 | E 20 | 16.09 | Overcast | FEW018 OVC038 | 21.1 | 16.1 | 73% | 76.28 | 1015.6 | |||||||
| 10 | 12:53 | NE 24 | 16.09 | Mostly Cloudy | FEW020 BKN034 BKN065 | 20.6 | 16.1 | 26.1 | 19.4 | 76% | 76.23 | 1015.3 | |||||
| 10 | 11:53 | NE 28 G 44 | 16.09 | Thunderstorm | FEW027 BKN034 OVC065CB | 20 | 14.4 | 70% | 76.25 | 1015.6 | |||||||
| 10 | 10:53 | S 24 | 16.09 | A Few Clouds | FEW048 FEW250 | 25.6 | 17.2 | 60% | 27 | 76.05 | 1012.5 | ||||||
| 10 | 09:53 | SE 24 G 35 | 16.09 | A Few Clouds | FEW033 FEW048 FEW250 | 23.3 | 15 | 60% | 76 | 1012.1 | |||||||
| 10 | 08:53 | SE 22 | 16.09 | Mostly Cloudy | BKN033 | 21.7 | 15 | 66% | 76.07 | 1013.1 | |||||||
| 10 | 07:53 | SE 20 | 16.09 | Overcast | OVC032 | 20.6 | 14.4 | 68% | 76.07 | 1013.1 | |||||||
| 10 | 05:53 | E 22 G 35 | 16.09 | Overcast | SCT030 BKN036 OVC048 | 20.6 | 15 | 70% | 76 | 1011.9 | |||||||
| 10 | 04:53 | E 22 G 35 | 16.09 | Overcast | FEW028 BKN070 OVC080 | 21.7 | 16.1 | 71% | 75.97 | 1011.2 | |||||||
| 10 | 03:53 | NE 24 | 16.09 | Mostly Cloudy | FEW031 BKN043 BKN049 | 23.3 | 19.4 | 79% | 75.87 | 1010.0 | |||||||
| 10 | 02:53 | NE 13 | 16.09 | Mostly Cloudy | BKN041 BKN150 | 23.9 | 18.3 | 71% | 25 | 75.84 | 1009.5 | ||||||
| 10 | 01:53 | SE 17 | 16.09 | A Few Clouds | FEW050 FEW140 FEW250 | 25 | 17.8 | 64% | 26 | 75.72 | 1008.0 | ||||||
| 10 | 00:53 | N 28 | 16.09 | Mostly Cloudy | BKN170 BKN250 | 23.9 | 17.2 | 30 | 23.3 | 66% | 25 | 75.84 | 1009.5 | ||||
| 09 | 23:53 | SE 19 | 16.09 | A Few Clouds | FEW250 | 25.6 | 16.7 | 58% | 26 | 75.64 | 1006.9 | ||||||
| 09 | 22:53 | SE 17 | 16.09 | A Few Clouds | FEW250 | 25 | 16.1 | 58% | 26 | 75.64 | 1007.1 | ||||||
| 09 | 21:53 | SE 13 | 16.09 | A Few Clouds | FEW250 | 24.4 | 16.7 | 62% | 25 | 75.67 | 1007.3 | ||||||
| 09 | 20:53 | E 13 | 16.09 | A Few Clouds | FEW250 | 27.2 | 16.7 | 53% | 28 | 75.62 | 1006.7 | ||||||
| 09 | 18:53 | E 9 | 16.09 | A Few Clouds | FEW050 | 30 | 16.1 | 31.1 | 28.9 | 43% | 30 | 75.57 | 1006.2 | ||||
| 09 | 17:53 | NE 7 | 16.09 | A Few Clouds | FEW050 | 30.6 | 17.2 | 45% | 31 | 75.59 | 1006.5 | ||||||
| 09 | 16:53 | E 11 | 16.09 | A Few Clouds | FEW050 | 30 | 17.8 | 48% | 31 | 75.59 | 1006.5 | ||||||
| 09 | 15:53 | E 7 | 16.09 | A Few Clouds | FEW250 | 30.6 | 16.1 | 42% | 31 | 75.64 | 1006.9 | ||||||
| 09 | 14:53 | Vrbl 6 | 16.09 | A Few Clouds | FEW045 FEW250 | 30.6 | 17.2 | 45% | 31 | 75.69 | 1007.8 | ||||||
| 09 | 13:53 | NE 9 | 16.09 | A Few Clouds | FEW045 FEW250 | 29.4 | 17.2 | 48% | 30 | 75.74 | 1008.4 | ||||||
| 09 | 12:53 | Vrbl 7 | 16.09 | Partly Cloudy | FEW025 SCT250 | 28.9 | 16.7 | 28.9 | 19.4 | 48% | 29 | 75.77 | 1009.0 | ||||
| 09 | 11:53 | NW 15 | 16.09 | Partly Cloudy | FEW020 SCT250 | 27.8 | 17.8 | 55% | 29 | 75.82 | 1009.3 | ||||||
| 09 | 10:53 | NW 22 | 16.09 | Mostly Cloudy | BKN250 | 26.1 | 16.1 | 54% | 27 | 75.79 | 1009.4 | ||||||
| 09 | 09:53 | NW 15 | 16.09 | Mostly Cloudy | BKN250 | 25.6 | 16.7 | 58% | 26 | 75.82 | 1009.7 | ||||||
| 09 | 08:53 | NW 11 | 16.09 | Mostly Cloudy | FEW170 BKN250 | 22.8 | 18.9 | 79% | 75.82 | 1009.7 | |||||||
| 09 | 07:53 | NW 15 | 9.66 | Mostly Cloudy with Haze | FEW150 BKN250 | 21.1 | 18.3 | 84% | 75.82 | 1009.6 | |||||||
| 09 | 06:53 | NW 11 | 8.05 | Fog/Mist | FEW150 BKN250 | 19.4 | 17.8 | 23.3 | 19.4 | 91% | 75.77 | 1009.3 | |||||
| 09 | 05:53 | W 20 | 16.09 | Mostly Cloudy | BKN150 BKN250 | 20.6 | 17.2 | 81% | 75.72 | 1008.3 | |||||||
| 09 | 04:53 | W 7 | 16.09 | Overcast | OVC150 | 20 | 16.7 | 81% | 75.67 | 1007.8 | |||||||
| 09 | 03:53 | N 15 | 16.09 | Overcast | FEW020 OVC150 | 23.3 | 15.6 | 62% | 75.62 | 1006.8 | |||||||
| 09 | 02:53 | SW 20 G 37 | 16.09 | Mostly Cloudy | FEW039 BKN130 BKN250 | 22.2 | 16.1 | 68% | 75.57 | 1006.5 | |||||||
| 09 | 01:53 | SW 17 | 12.87 | Mostly Cloudy | FEW039 BKN250 | 20.6 | 18.9 | 90% | 75.79 | 1009.6 | |||||||
| 09 | 00:53 | SW 9 | 12.87 | A Few Clouds | FEW030 FEW060 FEW250 | 20 | 18.3 | 22.8 | 20 | 90% | 75.82 | 1010.0 | |||||
| 08 | 23:53 | N 13 | 16.09 | Mostly Cloudy | FEW021 BKN180 BKN250 | 21.7 | 18.9 | 84% | 75.84 | 1010.2 | |||||||
| 08 | 22:53 | SE 9 | 16.09 | Mostly Cloudy | SCT021 BKN250 | 21.7 | 18.3 | 81% | 75.77 | 1009.0 | |||||||
| 08 | 21:53 | SE 17 | 16.09 | Partly Cloudy | SCT080 | 22.2 | 18.3 | 79% | 75.67 | 1007.8 | |||||||
| 08 | 20:53 | S 17 | 16.09 | Partly Cloudy | SCT080 | 22.2 | 18.3 | 79% | 75.59 | 1007.0 | |||||||
| 08 | 19:53 | S 17 | 16.09 | Mostly Cloudy | FEW030 BKN050 BKN100 | 22.8 | 18.3 | 76% | 75.62 | 1007.4 | |||||||
| 08 | 18:53 | S 20 | 16.09 | Mostly Cloudy | BKN060 | 22.8 | 17.8 | 24.4 | 22.2 | 74% | 75.62 | 1007.2 | |||||
| 08 | 17:53 | S 20 | 16.09 | Overcast | OVC055 | 23.3 | 17.2 | 69% | 75.62 | 1007.4 | |||||||
| 08 | 16:53 | SE 26 | 16.09 | Partly Cloudy | FEW050 SCT100 | 23.9 | 16.7 | 64% | 25 | 75.64 | 1007.5 | ||||||
| 08 | 15:53 | S 15 | 16.09 | Partly Cloudy | SCT031 | 23.9 | 16.1 | 62% | 25 | 75.69 | 1008.4 | ||||||
| 08 | 14:53 | S 20 | 16.09 | Overcast | OVC027 | 22.2 | 15.6 | 66% | 75.82 | 1010.1 | |||||||
| 08 | 13:53 | S 15 | 16.09 | Overcast | BKN026 OVC060 | 23.3 | 15.6 | 62% | 75.82 | 1010.0 | |||||||
| 08 | 12:53 | S 22 | 16.09 | Mostly Cloudy | SCT022 BKN055 BKN100 | 22.8 | 15.6 | 22.8 | 15.6 | 64% | 75.9 | 1011.1 | 0.1 | ||||
| 08 | 11:53 | S 17 | 16.09 | Mostly Cloudy | SCT020 BKN055 | 22.2 | 15.6 | 66% | 75.95 | 1011.8 | |||||||
| 08 | 10:53 | SE 13 | 16.09 | Overcast | SCT017 OVC055 | 20 | 13.9 | 68% | 76.02 | 1012.7 | |||||||
| 08 | 09:53 | S 11 | 16.09 | Thunderstorm | BKN055CB BKN090 | 18.9 | 12.8 | 68% | 76.07 | 1013.5 | 0.1 | ||||||
| 08 | 08:53 | S 17 | 16.09 | Mostly Cloudy | BKN060 BKN090 | 17.8 | 13.9 | 78% | 76.07 | 1013.5 | 0.03 | ||||||
| 08 | 07:53 | S 11 | 16.09 | Light Rain | BKN060 BKN085 | 16.1 | 13.9 | 87% | 76.07 | 1013.6 | 0.08 | ||||||
| 08 | 06:53 | S 13 | 11.27 | Thunderstorm Light Rain | BKN060CB OVC080 | 16.1 | 13.9 | 18.3 | 15.6 | 87% | 76.1 | 1013.9 | 0.08 | 0.91 | |||
| 08 | 05:53 | SE 11 | 16.09 | Thunderstorm | BKN060CB OVC075 | 15.6 | 13.9 | 90% | 76.05 | 1013.2 | 0.58 | ||||||
| 08 | 04:53 | Calm | 16.09 | Thunderstorm | FEW049 BKN060CB OVC080 | 16.1 | 14.4 | 90% | 76.05 | 1013.2 | 0.13 | ||||||
| 08 | 03:53 | Calm | 16.09 | Overcast | BKN070 OVC085 | 16.1 | 13.9 | 87% | 76.07 | 1013.3 | 0.13 | ||||||
| 08 | 02:53 | E 6 | 16.09 | Thunderstorm | FEW065CB OVC110 | 15.6 | 13.3 | 86% | 76.1 | 1013.8 | 0.13 | ||||||
| 08 | 01:53 | SW 9 | 16.09 | Thunderstorm | FEW060CB BKN070 BKN130 OVC250 | 17.8 | 11.7 | 68% | 76.17 | 1014.6 | |||||||
| 08 | 00:53 | Calm | 16.09 | Mostly Cloudy | BKN075 | 17.8 | 10.6 | 21.7 | 17.2 | 63% | 76.17 | 1015.0 | |||||
| 07 | 23:53 | S 7 | 16.09 | Mostly Cloudy | BKN130 BKN160 BKN250 | 17.8 | 10 | 60% | 76.17 | 1015.0 | |||||||
| 07 | 22:53 | S 6 | 16.09 | Mostly Cloudy | BKN150 BKN250 | 17.8 | 10 | 60% | 76.17 | 1015.0 | |||||||
| 07 | 21:53 | S 13 | 16.09 | Mostly Cloudy | SCT150 BKN250 | 17.2 | 10.6 | 65% | 76.15 | 1014.6 | |||||||
| 07 | 20:53 | S 7 | 16.09 | Mostly Cloudy | SCT150 BKN250 | 18.9 | 10.6 | 59% | 76.1 | 1014.1 | |||||||
| 07 | 19:53 | S 20 | 16.09 | Mostly Cloudy | SCT150 BKN250 | 19.4 | 10.6 | 57% | 76.1 | 1014.2 | |||||||
| 07 | 18:53 | SE 6 | 16.09 | Mostly Cloudy | SCT150 BKN250 | 21.7 | 9.4 | 23.9 | 20.6 | 46% | 76.12 | 1014.3 | |||||
| 07 | 17:53 | E 7 | 16.09 | Mostly Cloudy | SCT150 BKN250 | 22.2 | 9.4 | 44% | 76.12 | 1014.5 | |||||||
| 07 | 16:53 | NE 6 | 16.09 | Mostly Cloudy | SCT150 BKN250 | 22.2 | 8.3 | 41% | 76.15 | 1014.7 | |||||||
| 07 | 15:53 | E 6 | 16.09 | Mostly Cloudy | SCT120 BKN250 | 22.8 | 8.3 | 40% | 76.2 | 1015.4 | |||||||
| Date | Time (cdt) | Wind (kph) | Vis. (km) | Weather | Sky Cond. | Air | Dwpt | Max. | Min. | Relative Humidity | Wind Chill (°C) | Heat Index (°C) | altimeter (cm) | sea level (mb) | 1 hr | 3 hr | 6 hr |
| 6 hour | |||||||||||||||||
| Temperature (ºC) | Pressure | Precipitation (cm) | |||||||||||||||